Forside
METAR-TAF:

METAR-TAF

Lufthavne :

Herat, Afghanistan

Breddekreds: 34-13N, længdekreds: 062-13E, højde: 964 m

Aktuelle vejr

Denne rapport blev lavet for 1 time og 3 minutter siden, kl. 15:55 UTC
Vind 2 kt fra sydvest
Temperatur 10°C
Fugtighed 46%
Tryk 1022 hPa
Sigt 10 km eller mere
ingen skyer under 1500m og ingen cumulonimbus

METAR: OAHR 231555Z 23002KT CAVOK 10/M01 Q1022 RMK A3019 BLU

Tid: 21:28 (16:58 UTC)

Vejrudsigter

Denne rapport blev lavet for 5 timer og 58 minutter siden, kl. 11:00 UTC
Foreløbig gælder fra 23 på 12 UTC til 24 på 12 UTC
Vind 8 kt fra nordnordvest
Sigt 10 km eller mere
ingen skyer under 1500m og ingen cumulonimbus
ændring
fra 23 på 14 UTC til 23 på 16 UTC
Vind 3 kt fra varierende retninger
ændring
fra 24 på 08 UTC til 24 på 10 UTC
Vind 11 kt fra nordnordøst

TAF: OAHR 231100Z 2312/2412 34008KT CAVOK BECMG 2314/2316 VRB03KT BECMG 2408/2410 03011KT

Vejrobservationer og prognoser fra mere end 4000 lufthavne (METAR og TAF).

De gule og røde prikker repræsenterer de meteorologiske stationer.

Flyt musen over at se navnet på stationen.

Så klik over at se vejr observationer og prognoser.

At skifte det kort: Klik på de grønne knapper med et sort kors for at zoome ind; på den grønne knap med en bindestreg for at zoome ud; eller på de grønne pile for tilstødende kort.


METAR-TAF: